Airfield :
LOGIN :

Register | Disclaimer

   EN    FR    IT 

 










Legend :    VFR   Marginal VFR   IFR   Intensive IFR   Very Intensive IFR
Visi :
Ceiling :
>= 8 km
>= 3000ft
5 to 8 km
1000 to 3000 ft
1500m to 5 km
500 to 1000 ft
800 to 1500m
200 to 500 ft
< 800m
< 200 ft
Symbols :   Thunderstorms  Fog  Heavy snow  Heavy precipitations  Wind > 20 kt
SIGMETs :     Misc.  Thunderstorms  Icing  Turbulence  Mountain Waves  Volcanic Ashes






- Airport Elevation : 90 ft
- IATA code : NTE


LFRS - Nantes

CURRENT METAR :
  • 231030Z AUTO 23010KT 200V270 9999 4300 SCT024 SCT032 BKN038 17/13 Q1013 TEMPO SHRA SCT025TCU

EXPIRED METARs :
  • 231000Z AUTO 22007KT 190V250 CAVOK 16/13 Q1013 NOSIG
  • 230930Z AUTO 21005KT CAVOK 15/14 Q1013 NOSIG
  • 230900Z AUTO 18005KT CAVOK 13/13 Q1013 BECMG 24012KT
  • 230830Z AUTO 17004KT 9999 VV/// 11/11 Q1013 BECMG 24012KT SCT020
  • 230800Z AUTO VRB02KT 0500 0050 R03/1000U R21/1300U FG VV/// 09/09 Q1013 BECMG 9999 NSW SCT020

TAF AMD TAF LFRS
Valid from the 23 at 06:00 until the 24 at 12:00 UTC


230622Z 2306/2412 VRB03KT 3000 BR FEW002
TEMPO 2306/2308 0500 FG VV///
BECMG 2307/2309 9999 NSW SCT020
BECMG 2310/2312 24012KT
PROB30
TEMPO 2312/2324 SHRA SCT025TCU
BECMG 2400/2402 23015G25KT 4500 -RA BKN014
TEMPO 2409/2412 22018G32KT
ATIS : +33 2 40 05 12 74



MET'MAP, your aeronautical weather chart ! - Copyright ORBIFLY December 2007 - Disclaimer

ORBIFLY MET'MAP TEAM :

Programming & Development : Alexandra Zaïnal
Concept & original design : Baudouin d'Aumeries
Assistance for programming : Marc-Olivier Méhu
Technical & hardware support : Manuel Goepfert

Contact : metmap@orbifly.com




SOURCES & CREDITS :

   NOAA